createdAt,value
2019-01-21T00:01:47.844Z,48.43
2019-01-21T00:04:18.252Z,51.17
2019-01-21T00:06:48.598Z,49.83
2019-01-21T00:09:20.217Z,52.87
2019-01-21T00:11:53.761Z,47.87
2019-01-21T00:14:24.156Z,53.60
2019-01-21T00:16:54.441Z,54.90
2019-01-21T00:19:24.725Z,48.60
2019-01-21T00:21:56.724Z,48.93
2019-01-21T00:24:27.213Z,50.37
2019-01-21T00:26:57.490Z,43.47
2019-01-21T00:29:27.956Z,50.40
2019-01-21T00:31:58.262Z,42.23
2019-01-21T00:34:29.161Z,34.90
2019-01-21T00:37:03.483Z,37.00
2019-01-21T00:39:31.789Z,52.93
2019-01-21T00:42:01.991Z,50.43
2019-01-21T00:44:32.713Z,49.47
2019-01-21T00:47:06.019Z,54.17
2019-01-21T00:49:36.185Z,53.40
2019-01-21T00:52:06.672Z,44.97
2019-01-21T00:54:37.619Z,46.17
2019-01-21T00:57:18.723Z,45.17
2019-01-21T00:59:49.094Z,49.17
2019-01-21T01:02:19.652Z,41.70
2019-01-21T01:04:50.266Z,44.77
2019-01-21T01:07:20.833Z,47.03
2019-01-21T01:09:51.359Z,38.80
2019-01-21T01:12:21.717Z,42.97
2019-01-21T01:14:52.379Z,40.63
2019-01-21T01:17:22.887Z,46.70
2019-01-21T01:19:53.323Z,38.97
2019-01-21T01:22:23.657Z,37.80
2019-01-21T01:24:54.297Z,47.67
2019-01-21T01:27:25.058Z,39.93
2019-01-21T01:29:55.401Z,38.00
2019-01-21T01:32:26.097Z,47.43
2019-01-21T01:34:56.846Z,34.77
2019-01-21T01:37:27.143Z,47.37
2019-01-21T01:39:57.736Z,40.87
2019-01-21T01:42:31.308Z,46.60
2019-01-21T01:45:01.788Z,39.90
2019-01-21T01:47:32.152Z,43.27
2019-01-21T01:50:02.638Z,41.07
2019-01-21T01:52:33.381Z,46.83
2019-01-21T01:55:05.901Z,41.27
2019-01-21T01:57:36.413Z,46.70
2019-01-21T02:00:11.186Z,38.67
2019-01-21T02:02:41.991Z,41.60
2019-01-21T02:05:12.480Z,39.07
2019-01-21T02:07:42.805Z,39.17
2019-01-21T02:10:14.714Z,43.60
2019-01-21T02:12:45.133Z,45.83
2019-01-21T02:15:15.590Z,48.97
2019-01-21T02:17:52.071Z,41.90
2019-01-21T02:20:18.738Z,41.70
2019-01-21T02:22:51.913Z,44.67
2019-01-21T02:25:26.402Z,33.93
2019-01-21T02:28:35.069Z,44.27
2019-01-21T02:31:45.358Z,42.80
2019-01-21T02:34:33.311Z,36.10
2019-01-21T02:37:53.184Z,42.03
2019-01-21T02:40:54.681Z,36.67
2019-01-21T02:44:07.529Z,42.13
2019-01-21T02:47:18.554Z,35.90
2019-01-21T02:50:17.164Z,35.53
2019-01-21T02:53:10.366Z,42.03
2019-01-21T02:56:42.541Z,43.47
2019-01-21T03:00:10.165Z,40.50
2019-01-21T03:03:31.065Z,43.27
2019-01-21T03:06:37.384Z,35.57
2019-01-21T03:09:48.438Z,38.93
2019-01-21T03:12:54.272Z,40.60
2019-01-21T03:15:54.115Z,28.93
2019-01-21T03:18:56.758Z,40.53
2019-01-21T03:22:09.014Z,40.43
2019-01-21T03:25:32.671Z,37.60
2019-01-21T03:28:39.481Z,34.10
2019-01-21T03:32:12.095Z,42.43
2019-01-21T03:35:16.457Z,42.43
2019-01-21T03:38:49.337Z,37.23
2019-01-21T03:42:21.628Z,45.93
2019-01-21T03:45:36.171Z,38.87
2019-01-21T03:48:31.739Z,28.87
2019-01-21T03:51:30.595Z,32.03
2019-01-21T03:54:32.780Z,37.23
2019-01-21T03:57:27.640Z,38.83
2019-01-21T04:00:20.055Z,31.10
2019-01-21T04:03:46.454Z,30.27
2019-01-21T04:06:28.217Z,36.47
2019-01-21T04:09:18.645Z,34.00
2019-01-21T04:12:04.133Z,39.73
2019-01-21T04:15:25.577Z,35.20
2019-01-21T04:18:45.740Z,34.27
2019-01-21T04:21:55.847Z,31.60
2019-01-21T04:25:24.874Z,32.10
2019-01-21T04:28:16.499Z,34.37
2019-01-21T04:31:23.282Z,37.57
2019-01-21T04:34:19.201Z,28.50
2019-01-21T04:37:34.285Z,35.60
2019-01-21T04:40:38.817Z,28.27
2019-01-21T04:43:35.998Z,30.43
2019-01-21T04:46:55.209Z,33.10
2019-01-21T04:50:39.418Z,37.33
2019-01-21T04:53:56.457Z,35.77
2019-01-21T04:56:59.933Z,39.37
2019-01-21T05:00:13.863Z,38.20
2019-01-21T05:03:21.459Z,39.27
2019-01-21T05:06:21.307Z,34.03
2019-01-21T05:09:50.519Z,39.63
2019-01-21T05:12:57.454Z,36.83
2019-01-21T05:16:14.387Z,40.50
2019-01-21T05:19:05.789Z,29.13
2019-01-21T05:22:08.021Z,31.67
2019-01-21T05:25:01.595Z,30.07
2019-01-21T05:27:56.948Z,32.97
2019-01-21T05:30:57.199Z,35.33
2019-01-21T05:34:03.168Z,29.13
2019-01-21T05:37:11.566Z,31.30
2019-01-21T05:40:26.308Z,31.60
2019-01-21T05:43:26.866Z,38.60
2019-01-21T05:46:14.365Z,26.37
2019-01-21T05:49:22.719Z,35.30
2019-01-21T05:52:44.621Z,30.73
2019-01-21T05:55:40.131Z,26.70
2019-01-21T05:59:06.429Z,34.60
2019-01-21T06:01:55.309Z,29.30
2019-01-21T06:05:06.468Z,31.20
2019-01-21T06:08:03.974Z,36.67
2019-01-21T06:10:41.018Z,30.57
2019-01-21T06:13:42.049Z,32.57
2019-01-21T06:16:59.129Z,38.27
2019-01-21T06:20:23.122Z,34.73
2019-01-21T06:23:37.837Z,29.03
2019-01-21T06:27:07.133Z,29.77
2019-01-21T06:30:00.756Z,42.90
2019-01-21T06:33:21.497Z,29.37
2019-01-21T06:36:13.743Z,27.87
2019-01-21T06:39:46.391Z,30.87
2019-01-21T06:42:53.388Z,25.90
2019-01-21T06:46:22.331Z,30.70
2019-01-21T06:49:36.638Z,30.73
2019-01-21T06:52:36.457Z,30.13
2019-01-21T06:55:16.222Z,31.73
2019-01-21T06:58:22.082Z,33.73
2019-01-21T07:01:17.772Z,34.70
2019-01-21T07:04:43.893Z,35.57
2019-01-21T07:07:51.011Z,26.40
2019-01-21T07:11:08.058Z,30.27
2019-01-21T07:14:32.305Z,35.00
2019-01-21T07:17:35.141Z,28.27
2019-01-21T07:20:47.198Z,29.87
2019-01-21T07:23:44.329Z,27.67
2019-01-21T07:26:37.006Z,37.80
2019-01-21T07:29:54.535Z,36.97
2019-01-21T07:33:07.661Z,33.13
2019-01-21T07:36:13.446Z,30.43
2019-01-21T07:39:16.033Z,28.87
2019-01-21T07:42:08.720Z,23.73
2019-01-21T07:45:12.372Z,33.80
2019-01-21T07:48:39.569Z,30.83
2019-01-21T07:51:37.317Z,25.93
2019-01-21T07:54:28.166Z,30.83
2019-01-21T07:57:50.386Z,45.53
2019-01-21T08:01:10.191Z,39.80
2019-01-21T08:04:25.417Z,30.10
2019-01-21T08:07:27.951Z,39.40
2019-01-21T08:11:00.592Z,30.77
2019-01-21T08:13:59.003Z,33.07
2019-01-21T08:17:28.457Z,32.17
2019-01-21T08:20:02.516Z,34.90
2019-01-21T08:23:10.654Z,33.90
2019-01-21T08:26:34.047Z,36.03
2019-01-21T08:29:36.018Z,36.77
2019-01-21T08:32:49.762Z,32.77
2019-01-21T08:35:31.314Z,34.23
2019-01-21T08:38:43.631Z,39.80
2019-01-21T08:41:50.493Z,34.57
2019-01-21T08:45:00.889Z,43.57
2019-01-21T08:48:08.740Z,38.83
2019-01-21T08:51:20.326Z,48.70
2019-01-21T08:54:01.957Z,39.40
2019-01-21T08:57:22.039Z,51.53
2019-01-21T09:00:08.386Z,66.30
2019-01-21T09:03:36.321Z,78.97
2019-01-21T09:06:30.152Z,64.93
2019-01-21T09:09:22.330Z,70.00
2019-01-21T09:12:26.729Z,65.83
2019-01-21T09:15:26.645Z,59.73
2019-01-21T09:18:28.907Z,59.37
2019-01-21T09:21:32.481Z,56.03
2019-01-21T09:24:49.753Z,53.70
2019-01-21T09:27:48.727Z,47.57
2019-01-21T09:31:19.630Z,50.50
2019-01-21T09:34:02.982Z,48.90
2019-01-21T09:37:16.053Z,49.87
2019-01-21T09:40:23.120Z,49.37
2019-01-21T09:43:15.307Z,60.13
2019-01-21T09:46:11.662Z,53.50
2019-01-21T09:48:40.066Z,56.10
2019-01-21T09:51:11.465Z,55.37
2019-01-21T09:53:43.583Z,53.43
2019-01-21T09:56:14.085Z,48.20
2019-01-21T09:58:46.183Z,54.40
2019-01-21T10:01:16.962Z,51.00
2019-01-21T10:03:47.576Z,52.67
2019-01-21T10:06:21.943Z,48.03
2019-01-21T10:09:18.738Z,50.63
2019-01-21T10:12:18.724Z,46.40
2019-01-21T10:15:22.498Z,49.37
2019-01-21T10:18:50.592Z,48.50
2019-01-21T10:22:10.898Z,44.93
2019-01-21T10:25:18.362Z,43.67
2019-01-21T10:28:48.719Z,46.77
2019-01-21T10:31:52.110Z,46.33
2019-01-21T10:35:00.394Z,44.80
2019-01-21T10:38:27.450Z,40.33
2019-01-21T10:41:21.237Z,40.37
2019-01-21T10:44:51.350Z,46.30
2019-01-21T10:47:49.735Z,46.97
2019-01-21T10:50:56.159Z,43.13
2019-01-21T10:53:55.652Z,40.13
2019-01-21T10:56:38.453Z,48.30
2019-01-21T10:59:48.495Z,42.87
2019-01-21T11:03:05.724Z,44.50
2019-01-21T11:05:51.406Z,45.23
2019-01-21T11:08:46.271Z,54.53
2019-01-21T11:12:12.414Z,45.90
2019-01-21T11:15:09.187Z,38.87
2019-01-21T11:18:09.611Z,40.10
2019-01-21T11:21:28.003Z,44.27
2019-01-21T11:24:16.714Z,42.53
2019-01-21T11:27:18.459Z,51.00
2019-01-21T11:30:02.002Z,43.40
2019-01-21T11:33:18.750Z,48.47
2019-01-21T11:36:48.081Z,43.23
2019-01-21T11:39:45.634Z,48.30
2019-01-21T11:42:27.359Z,44.27
2019-01-21T11:45:22.398Z,50.63
2019-01-21T11:48:19.623Z,46.10
2019-01-21T11:51:26.308Z,43.40
2019-01-21T11:54:31.441Z,45.03
2019-01-21T11:57:41.679Z,43.97
2019-01-21T12:00:22.290Z,37.27
2019-01-21T12:03:32.642Z,35.07
2019-01-21T12:06:13.821Z,41.00
2019-01-21T12:09:25.718Z,34.90
2019-01-21T12:12:11.106Z,37.50
2019-01-21T12:15:23.326Z,38.10
2019-01-21T12:18:52.402Z,36.33
2019-01-21T12:22:05.234Z,40.00
2019-01-21T12:24:54.574Z,34.63
2019-01-21T12:27:57.949Z,38.07
2019-01-21T12:30:46.541Z,31.87
2019-01-21T12:33:41.050Z,37.60
2019-01-21T12:36:23.479Z,35.27
2019-01-21T12:39:32.546Z,35.90
2019-01-21T12:42:59.137Z,33.43
2019-01-21T12:46:04.070Z,40.07
2019-01-21T12:48:54.803Z,38.70
2019-01-21T12:51:36.872Z,37.97
2019-01-21T12:54:47.827Z,36.43
2019-01-21T12:57:36.697Z,34.87
2019-01-21T13:00:43.418Z,35.47
2019-01-21T13:03:53.988Z,35.00
2019-01-21T13:07:00.876Z,37.33
2019-01-21T13:10:10.022Z,30.43
2019-01-21T13:13:12.851Z,31.80
2019-01-21T13:16:00.297Z,36.27
2019-01-21T13:19:14.728Z,33.27
2019-01-21T13:22:14.895Z,29.20
2019-01-21T13:25:18.773Z,31.90
2019-01-21T13:28:22.711Z,37.80
2019-01-21T13:31:40.362Z,33.00
2019-01-21T13:34:49.536Z,34.80
2019-01-21T13:37:55.577Z,28.00
2019-01-21T13:41:06.863Z,33.57
2019-01-21T13:44:09.004Z,30.20
2019-01-21T13:47:16.235Z,35.07
2019-01-21T13:50:10.899Z,32.53
2019-01-21T13:53:06.048Z,31.00
2019-01-21T13:55:55.562Z,30.10
2019-01-21T13:59:02.070Z,31.50
2019-01-21T14:01:45.787Z,36.43
2019-01-21T14:04:50.652Z,33.53
2019-01-21T14:07:58.976Z,32.47
2019-01-21T14:11:00.569Z,36.80
2019-01-21T14:14:10.931Z,29.57
2019-01-21T14:16:57.999Z,35.70
2019-01-21T14:19:52.688Z,44.37
2019-01-21T14:26:00.651Z,35.40
2019-01-21T14:29:14.152Z,35.60
2019-01-21T14:32:16.117Z,31.53
2019-01-21T14:35:41.594Z,33.60
2019-01-21T14:38:42.570Z,37.20
2019-01-21T14:42:00.839Z,32.20
2019-01-21T14:45:33.712Z,34.37
2019-01-21T14:48:35.598Z,36.57
2019-01-21T14:51:25.822Z,35.00
2019-01-21T14:54:41.895Z,36.47
2019-01-21T14:57:47.508Z,36.17
2019-01-21T15:00:48.782Z,38.30
2019-01-21T15:03:49.375Z,34.60
2019-01-21T15:06:43.014Z,35.20
2019-01-21T15:09:54.649Z,36.10
2019-01-21T15:13:12.511Z,37.10
2019-01-21T15:16:25.672Z,36.93
2019-01-21T15:19:28.913Z,35.83
2019-01-21T15:22:37.122Z,37.17
2019-01-21T15:25:54.246Z,40.50
2019-01-21T15:29:05.222Z,38.43
2019-01-21T15:32:18.918Z,49.47
2019-01-21T15:35:20.635Z,40.20
2019-01-21T15:38:42.260Z,43.70
2019-01-21T15:42:18.491Z,39.97
2019-01-21T15:45:29.703Z,41.63
2019-01-21T15:48:18.519Z,43.33
2019-01-21T15:51:38.619Z,41.20
2019-01-21T15:54:56.702Z,39.23
2019-01-21T15:58:18.781Z,41.20
2019-01-21T16:01:20.900Z,40.40
2019-01-21T16:04:09.523Z,32.13
2019-01-21T16:07:14.395Z,34.00
2019-01-21T16:10:27.799Z,38.63
2019-01-21T16:13:44.916Z,39.80
2019-01-21T16:16:41.380Z,37.37
2019-01-21T16:19:22.710Z,37.30
2019-01-21T16:22:32.469Z,42.50
2019-01-21T16:25:46.293Z,33.13
2019-01-21T16:28:39.059Z,35.53
2019-01-21T16:31:35.673Z,39.60
2019-01-21T16:34:42.629Z,34.43
2019-01-21T16:37:59.469Z,37.20
2019-01-21T16:40:55.434Z,35.37
2019-01-21T16:43:25.967Z,35.00
2019-01-21T16:45:58.088Z,37.70
2019-01-21T16:48:28.498Z,40.30
2019-01-21T16:51:05.065Z,38.97
2019-01-21T16:53:35.372Z,41.00
2019-01-21T16:56:05.939Z,37.87
2019-01-21T16:58:38.859Z,44.73
2019-01-21T17:01:12.336Z,38.80
2019-01-21T17:03:44.666Z,38.33
2019-01-21T17:06:19.255Z,37.70
2019-01-21T17:08:54.078Z,40.60
2019-01-21T17:11:24.050Z,37.60
2019-01-21T17:13:58.734Z,39.33
2019-01-21T17:16:32.804Z,40.33
2019-01-21T17:19:04.283Z,37.87
2019-01-21T17:24:06.719Z,37.60
2019-01-21T17:26:37.401Z,38.63
2019-01-21T17:29:08.350Z,38.47
2019-01-21T17:31:38.654Z,35.20
2019-01-21T17:34:09.167Z,34.20
2019-01-21T17:36:39.550Z,35.00
2019-01-21T17:39:10.984Z,38.93
2019-01-21T17:41:41.741Z,47.53
2019-01-21T17:44:14.731Z,34.93
2019-01-21T17:46:45.010Z,38.60
2019-01-21T17:49:15.752Z,35.97
2019-01-21T17:51:46.084Z,35.07
2019-01-21T17:54:19.569Z,36.20
2019-01-21T17:56:59.299Z,38.27
2019-01-21T17:59:34.598Z,37.37
2019-01-21T18:02:09.978Z,33.93
2019-01-21T18:04:40.602Z,34.70
2019-01-21T18:07:18.762Z,35.50
2019-01-21T18:09:57.156Z,38.70
2019-01-21T18:12:30.633Z,35.30
2019-01-21T18:15:04.475Z,31.13
2019-01-21T18:17:41.549Z,33.60
2019-01-21T18:20:18.930Z,38.17
2019-01-21T18:22:52.377Z,31.93
2019-01-21T18:25:27.141Z,32.53
2019-01-21T18:28:00.707Z,33.07
2019-01-21T18:30:32.809Z,35.43
2019-01-21T18:33:03.263Z,38.87
2019-01-21T18:35:33.853Z,40.90
2019-01-21T18:38:08.150Z,35.80
2019-01-21T18:40:40.269Z,34.53
2019-01-21T18:43:12.026Z,32.17
2019-01-21T18:45:47.802Z,37.20
2019-01-21T18:48:18.991Z,30.77
2019-01-21T18:50:50.921Z,27.40
2019-01-21T18:53:24.173Z,31.03
2019-01-21T18:55:59.740Z,29.23
2019-01-21T18:58:30.040Z,33.90
2019-01-21T19:01:02.222Z,32.67
2019-01-21T19:03:32.751Z,32.33
2019-01-21T19:06:03.170Z,29.97
2019-01-21T19:08:33.559Z,34.53
2019-01-21T19:11:05.869Z,30.97
2019-01-21T19:13:37.493Z,30.03
2019-01-21T19:16:10.646Z,31.30
2019-01-21T19:18:41.593Z,34.97
2019-01-21T19:21:14.250Z,32.63
2019-01-21T19:23:44.668Z,32.60
2019-01-21T19:26:17.598Z,28.20
2019-01-21T19:28:48.035Z,33.63
2019-01-21T19:31:18.509Z,36.13
2019-01-21T19:33:51.476Z,32.13
2019-01-21T19:36:21.801Z,32.90
2019-01-21T19:38:53.776Z,32.23
2019-01-21T19:41:30.063Z,35.57
2019-01-21T19:44:01.070Z,36.83
2019-01-21T19:46:44.307Z,32.37
2019-01-21T19:49:16.839Z,31.13
2019-01-21T19:51:47.393Z,34.80
2019-01-21T19:54:18.276Z,30.93
2019-01-21T19:56:55.015Z,39.27
2019-01-21T19:59:28.346Z,31.63
2019-01-21T20:01:59.493Z,38.70
2019-01-21T20:04:29.980Z,34.33
2019-01-21T20:07:00.402Z,33.97
2019-01-21T20:09:31.178Z,36.37
2019-01-21T20:12:01.902Z,33.60
2019-01-21T20:14:36.364Z,48.07
2019-01-21T20:17:11.007Z,30.47
2019-01-21T20:19:41.806Z,31.70
2019-01-21T20:22:15.302Z,32.97
2019-01-21T20:24:48.444Z,32.37
2019-01-21T20:27:18.883Z,34.57
2019-01-21T20:29:50.946Z,35.53
2019-01-21T20:32:22.799Z,32.73
2019-01-21T20:34:53.097Z,29.70
2019-01-21T20:37:23.477Z,31.43
2019-01-21T20:39:58.530Z,31.10
2019-01-21T20:42:32.009Z,27.87
2019-01-21T20:45:02.616Z,33.27
2019-01-21T20:47:35.791Z,31.23
2019-01-21T20:50:13.867Z,33.90
2019-01-21T20:52:46.007Z,37.53
2019-01-21T20:55:16.740Z,32.97
2019-01-21T20:57:47.951Z,36.53
2019-01-21T21:00:23.551Z,34.67
2019-01-21T21:02:58.176Z,40.03
2019-01-21T21:05:29.518Z,36.43
2019-01-21T21:08:03.638Z,36.60
2019-01-21T21:10:34.967Z,40.73
2019-01-21T21:13:06.373Z,41.97
2019-01-21T21:15:37.219Z,38.43
2019-01-21T21:18:08.339Z,28.93
2019-01-21T21:20:42.699Z,33.00
2019-01-21T21:23:15.292Z,33.83
2019-01-21T21:25:46.215Z,28.33
2019-01-21T21:28:17.563Z,33.47
2019-01-21T21:30:48.936Z,29.77
2019-01-21T21:33:23.255Z,36.53
2019-01-21T21:35:54.428Z,32.17
2019-01-21T21:38:29.764Z,34.20
2019-01-21T21:41:00.924Z,36.90
2019-01-21T21:43:32.122Z,42.00
2019-01-21T21:46:04.633Z,41.77
2019-01-21T21:48:35.384Z,37.20
2019-01-21T21:51:06.627Z,42.67
2019-01-21T21:53:37.743Z,32.33
2019-01-21T21:56:08.461Z,33.30
2019-01-21T21:58:40.347Z,38.87
2019-01-21T22:01:12.419Z,39.07
2019-01-21T22:03:43.411Z,36.10
2019-01-21T22:06:15.338Z,37.87
2019-01-21T22:08:48.811Z,34.17
2019-01-21T22:11:21.833Z,34.20
2019-01-21T22:13:55.802Z,34.17
2019-01-21T22:16:27.166Z,31.30
2019-01-21T22:18:58.153Z,34.60
2019-01-21T22:21:29.617Z,29.83
2019-01-21T22:24:00.365Z,33.67
2019-01-21T22:26:32.557Z,33.50
2019-01-21T22:29:03.459Z,34.50
2019-01-21T22:31:33.761Z,39.67
2019-01-21T22:34:04.150Z,35.30
2019-01-21T22:36:35.025Z,36.93
2019-01-21T22:39:08.445Z,34.90
2019-01-21T22:41:39.170Z,33.83
2019-01-21T22:44:13.087Z,43.30
2019-01-21T22:46:46.218Z,33.90
2019-01-21T22:49:17.077Z,34.23
2019-01-21T22:51:48.057Z,34.83
2019-01-21T22:54:19.069Z,32.70
2019-01-21T22:56:49.457Z,35.50
2019-01-21T22:59:20.693Z,32.53
2019-01-21T23:01:51.060Z,36.30
2019-01-21T23:04:21.642Z,42.20
2019-01-21T23:06:52.077Z,37.23
2019-01-21T23:09:27.282Z,36.40
2019-01-21T23:12:00.038Z,39.00
2019-01-21T23:14:31.209Z,34.80
2019-01-21T23:17:01.736Z,36.30
2019-01-21T23:19:34.832Z,36.93
2019-01-21T23:22:05.754Z,29.67
2019-01-21T23:24:36.006Z,42.10
2019-01-21T23:27:07.029Z,36.53
2019-01-21T23:29:37.876Z,34.97
2019-01-21T23:32:08.178Z,36.53
2019-01-21T23:34:38.718Z,34.90
2019-01-21T23:37:09.109Z,38.27
2019-01-21T23:39:40.051Z,36.30
2019-01-21T23:42:10.427Z,39.47
2019-01-21T23:44:40.850Z,34.03
2019-01-21T23:47:11.408Z,37.47
2019-01-21T23:49:41.719Z,37.30
2019-01-21T23:52:12.244Z,35.03
2019-01-21T23:54:43.341Z,38.87
2019-01-21T23:57:19.095Z,33.10
2019-01-21T23:59:49.542Z,36.77
